Time;durP1;ratioP1;P1;durP2;ratioP2;P2;SDS_P1;SDS_P2;PMS_P1;PMS_P2;Temp;Humidity;BMP_temperature;BMP_pressure;BME280_temperature;BME280_humidity;BME280_pressure;Samples;Min_cycle;Max_cycle;Signal;HPM_P1;HPM_P2
2022/11/16 00:01:34;;;;;;;39.75;20.55;;;;;;;7.34;80.17;100668.97;6307462;22;20003;-92
2022/11/16 00:04:01;;;;;;;40.60;21.35;;;;;;;7.07;79.71;100612.66;6334834;22;20006;-93
2022/11/16 00:06:27;;;;;;;37.90;19.02;;;;;;;7.26;79.84;100630.53;6255266;22;20184;-91
2022/11/16 00:09:25;;;;;;;36.75;18.98;;;;;;;7.36;79.72;100648.28;6282113;22;20014;-91
2022/11/16 00:11:56;;;;;;;38.22;18.48;;;;;;;7.26;79.53;100636.75;6283337;22;20010;-92
2022/11/16 00:14:24;;;;;;;39.25;18.20;;;;;;;7.43;80.11;100667.28;6280221;22;20398;-91
2022/11/16 00:16:49;;;;;;;38.60;18.98;;;;;;;7.29;80.52;100657.84;6309530;22;20435;-92
2022/11/16 00:19:15;;;;;;;37.13;20.05;;;;;;;7.18;80.06;100624.06;6283725;22;20009;-91
2022/11/16 00:21:43;;;;;;;39.65;19.77;;;;;;;7.09;79.80;100606.16;6309138;22;20412;-91
2022/11/16 00:24:11;;;;;;;38.20;19.25;;;;;;;7.31;79.62;100633.66;6284073;22;20010;-92
2022/11/16 00:26:39;;;;;;;36.70;20.17;;;;;;;7.25;79.27;100608.28;6283553;22;20057;-92
2022/11/16 00:29:08;;;;;;;42.13;19.73;;;;;;;7.19;79.27;100598.19;6336281;22;20011;-92
2022/11/16 00:31:34;;;;;;;39.70;20.30;;;;;;;7.60;79.13;100657.72;6284267;22;20492;-92
2022/11/16 00:34:02;;;;;;;38.63;20.35;;;;;;;7.31;78.92;100599.72;6283591;22;20003;-92
2022/11/16 00:36:29;;;;;;;40.55;20.17;;;;;;;7.37;78.80;100612.53;6307380;22;20015;-91
2022/11/16 00:38:56;;;;;;;42.60;21.63;;;;;;;7.69;78.50;100651.50;6307937;22;20447;-91
2022/11/16 00:41:23;;;;;;;46.08;21.45;;;;;;;7.71;78.29;100646.03;6336156;22;20009;-91
2022/11/16 00:43:50;;;;;;;43.83;21.73;;;;;;;7.47;78.71;100603.63;6309293;22;20430;-92
2022/11/16 00:46:17;;;;;;;51.13;23.88;;;;;;;7.69;78.39;100648.81;6314122;22;20007;-92
2022/11/16 00:48:46;;;;;;;38.58;20.25;;;;;;;7.57;78.30;100612.50;6340016;22;20034;-89
2022/11/16 00:51:11;;;;;;;47.42;24.30;;;;;;;7.45;78.10;100594.94;6337013;22;20021;-91
2022/11/16 00:53:39;;;;;;;44.65;21.00;;;;;;;7.59;77.80;100610.53;6338359;22;19999;-90
2022/11/16 00:56:04;;;;;;;38.08;20.42;;;;;;;7.65;78.27;100627.84;6285683;22;20033;-89
2022/11/16 00:58:32;;;;;;;45.13;22.10;;;;;;;7.42;78.08;100589.84;6288880;22;20003;-91
2022/11/16 01:01:25;;;;;;;38.95;20.85;;;;;;;7.33;77.94;100579.03;6284556;22;20018;-90
2022/11/16 01:03:51;;;;;;;39.42;20.58;;;;;;;7.28;77.94;100575.94;6321828;22;20002;-90
2022/11/16 01:06:16;;;;;;;39.03;20.25;;;;;;;7.50;78.35;100630.13;6262136;22;20030;-91
2022/11/16 01:08:42;;;;;;;40.58;19.70;;;;;;;7.35;78.20;100598.47;6284439;22;20080;-91
2022/11/16 01:14:04;;;;;;;37.88;19.45;;;;;;;7.51;78.03;100602.38;6337710;22;20427;-92
2022/11/16 01:16:29;;;;;;;41.10;19.35;;;;;;;7.58;77.92;100615.03;6283916;22;20363;-91
2022/11/16 01:18:55;;;;;;;38.33;20.73;;;;;;;7.27;77.79;100555.53;6283641;22;20542;-90
2022/11/16 01:21:21;;;;;;;34.08;19.50;;;;;;;7.65;77.49;100603.75;6309134;22;20509;-92
2022/11/16 01:23:48;;;;;;;39.85;21.33;;;;;;;7.63;77.48;100590.53;6282607;22;20390;-92
2022/11/16 01:26:18;;;;;;;36.78;21.02;;;;;;;7.76;77.16;100588.38;6337653;22;20533;-91
2022/11/16 01:28:45;;;;;;;42.53;21.33;;;;;;;7.79;76.74;100593.44;6313671;22;20007;-91
2022/11/16 01:31:13;;;;;;;38.67;20.90;;;;;;;7.81;76.44;100575.41;6288245;22;20090;-89
2022/11/16 01:33:39;;;;;;;46.10;23.33;;;;;;;7.74;76.58;100570.78;6317252;22;20007;-92
2022/11/16 01:36:13;;;;;;;44.30;24.70;;;;;;;7.49;76.58;100534.78;6309650;22;20090;-91
2022/11/16 01:38:43;;;;;;;45.42;23.63;;;;;;;7.47;76.52;100547.47;6308028;22;20011;-92
2022/11/16 01:41:13;;;;;;;42.70;22.60;;;;;;;7.44;76.56;100542.41;6284545;22;20009;-92
2022/11/16 01:44:03;;;;;;;40.08;22.23;;;;;;;7.35;76.72;100538.75;6258427;22;20368;-90
2022/11/16 01:46:29;;;;;;;39.08;20.65;;;;;;;7.45;76.98;100561.00;6290430;22;20007;-91
2022/11/16 01:49:03;;;;;;;44.25;22.85;;;;;;;7.38;77.44;100566.06;6308266;22;20011;-92
2022/11/16 01:51:29;;;;;;;45.17;24.17;;;;;;;7.35;77.53;100570.84;6281707;22;20006;-91
2022/11/16 01:53:55;;;;;;;47.38;24.27;;;;;;;7.17;77.83;100535.97;6306896;22;20107;-87
2022/11/16 01:56:21;;;;;;;;;;;;;;;7.15;78.29;100554.81;6315408;22;19999;-91
2022/11/16 01:58:47;;;;;;;53.63;26.60;;;;;;;6.77;78.78;100523.59;6335266;22;19906;-91
2022/11/16 02:01:13;;;;;;;54.88;27.42;;;;;;;6.72;78.94;100515.16;6255749;22;20015;-92
2022/11/16 02:03:39;;;;;;;55.92;27.45;;;;;;;6.67;79.50;100536.09;6282445;22;20015;-90
2022/11/16 02:06:17;;;;;;;54.78;28.35;;;;;;;6.72;80.00;100552.56;6335201;22;20003;-90
2022/11/16 02:12:33;;;;;;;55.72;27.02;;;;;;;6.49;80.48;100547.47;6311453;22;20018;-91
2022/11/16 02:15:10;;;;;;;62.33;29.17;;;;;;;6.49;80.52;100559.97;6335647;22;20019;-89
2022/11/16 02:17:59;;;;;;;60.33;30.00;;;;;;;6.41;80.51;100560.63;6340578;22;20003;-91
2022/11/16 02:20:51;;;;;;;63.05;31.23;;;;;;;6.23;81.20;100554.28;6320089;22;20010;-90
2022/11/16 02:24:00;;;;;;;64.03;32.08;;;;;;;5.83;81.83;100534.56;6328372;22;20084;-92
2022/11/16 02:26:47;;;;;;;62.95;30.95;;;;;;;5.79;82.51;100541.13;6244547;22;20014;-91
2022/11/16 02:29:35;;;;;;;61.42;30.25;;;;;;;5.80;81.70;100541.97;6336429;22;20034;-90
2022/11/16 02:32:12;;;;;;;57.63;29.25;;;;;;;5.46;81.88;100505.72;6308289;22;20006;-90
2022/11/16 02:34:44;;;;;;;57.75;28.65;;;;;;;5.49;82.25;100529.44;6292763;22;20060;-91
2022/11/16 02:37:11;;;;;;;58.05;28.08;;;;;;;5.39;82.45;100503.72;6287903;22;20010;-90
2022/11/16 02:39:37;;;;;;;58.92;27.90;;;;;;;5.25;82.41;100497.75;6261479;22;20090;-92
2022/11/16 02:42:03;;;;;;;52.42;26.55;;;;;;;5.28;82.35;100493.97;6345897;22;20014;-91
2022/11/16 02:44:36;;;;;;;;;;;;;;;5.40;82.53;100526.72;6301055;22;20011;-87
2022/11/16 02:47:05;;;;;;;47.53;22.95;;;;;;;5.17;82.22;100484.19;6322985;22;19910;-90
2022/11/16 02:49:34;;;;;;;48.22;25.08;;;;;;;4.98;82.39;100468.94;6296323;22;20052;-91
2022/11/16 02:52:00;;;;;;;51.33;25.50;;;;;;;5.10;82.34;100477.72;6296532;22;20029;-89
2022/11/16 02:54:25;;;;;;;49.15;23.25;;;;;;;4.90;82.69;100465.25;6297085;22;20003;-89
2022/11/16 02:57:07;;;;;;;50.83;23.25;;;;;;;5.08;82.80;100511.66;6272336;22;20014;-90
2022/11/16 02:59:45;;;;;;;49.50;22.50;;;;;;;4.99;82.94;100507.94;6355103;22;20014;-90
2022/11/16 03:02:40;;;;;;;48.55;23.30;;;;;;;4.55;83.09;100455.72;6300648;22;20022;-90
2022/11/16 03:05:12;;;;;;;;;;;;;;;4.94;82.90;100514.63;6335969;22;20006;-88
2022/11/16 03:07:54;;;;;;;41.58;20.20;;;;;;;4.90;83.30;100513.19;6357207;22;19930;-89
2022/11/16 03:13:04;;;;;;;53.15;24.17;;;;;;;4.79;83.60;100506.94;6313217;22;20022;-90
2022/11/16 03:15:31;;;;;;;56.50;24.95;;;;;;;4.53;84.13;100473.63;6282803;22;20518;-90
2022/11/16 03:17:58;;;;;;;55.28;25.13;;;;;;;4.49;84.46;100473.03;6283066;22;20020;-90
2022/11/16 03:20:27;;;;;;;55.95;26.55;;;;;;;4.42;84.61;100472.72;6308753;22;20076;-91
2022/11/16 03:22:56;;;;;;;52.38;25.83;;;;;;;4.33;85.10;100452.16;6283232;22;20002;-91
2022/11/16 03:25:22;;;;;;;48.60;23.88;;;;;;;4.34;85.41;100480.47;6281893;22;20006;-90
2022/11/16 03:27:55;;;;;;;50.60;23.77;;;;;;;4.47;85.20;100480.28;6341502;22;20007;-90
2022/11/16 03:30:24;;;;;;;44.92;22.65;;;;;;;4.38;84.84;100481.91;6313511;22;20061;-91
2022/11/16 03:33:07;;;;;;;44.72;22.48;;;;;;;4.40;84.60;100490.63;6283001;22;20002;-90
2022/11/16 03:36:00;;;;;;;54.25;24.08;;;;;;;3.97;84.99;100440.88;6308594;22;20355;-91
2022/11/16 03:38:26;;;;;;;46.88;23.70;;;;;;;4.22;85.59;100486.78;6319585;22;20007;-91
2022/11/16 03:40:52;;;;;;;62.22;28.10;;;;;;;4.04;85.55;100451.03;6294586;22;20421;-89
2022/11/16 03:43:20;;;;;;;58.25;27.27;;;;;;;4.18;85.59;100475.53;6358755;22;20007;-91
2022/11/16 03:45:48;;;;;;;57.33;28.25;;;;;;;4.08;85.96;100465.78;6305616;22;20070;-89
2022/11/16 03:48:15;;;;;;;63.85;29.48;;;;;;;4.10;85.36;100458.53;6283823;22;20011;-89
2022/11/16 03:50:41;;;;;;;59.60;29.33;;;;;;;4.06;85.71;100462.38;6286497;22;20011;-91
2022/11/16 03:53:08;;;;;;;61.15;28.73;;;;;;;4.17;85.42;100467.69;6284769;22;20003;-90
2022/11/16 03:55:33;;;;;;;67.35;31.55;;;;;;;4.11;85.50;100469.00;6283454;22;20017;-91
2022/11/16 03:58:01;;;;;;;;;;;;;;;4.11;85.22;100468.19;6320962;22;20024;-89
2022/11/16 04:00:26;;;;;;;74.15;31.52;;;;;;;3.72;85.48;100435.81;6353275;22;19902;-89
2022/11/16 04:02:53;;;;;;;73.60;32.73;;;;;;;3.65;85.94;100437.28;6319690;22;20450;-89
2022/11/16 04:26:14;;;;;;;117.30;37.92;;;;;;;3.55;87.68;100440.66;6342313;22;20062;-89
2022/11/16 04:28:39;;;;;;;179.38;41.00;;;;;;;3.50;87.90;100429.56;6284576;22;20086;-89
2022/11/16 04:39:33;;;;;;;196.57;42.03;;;;;;;3.34;90.70;100450.31;6340689;22;20018;-88
2022/11/16 04:42:16;;;;;;;150.70;43.05;;;;;;;3.36;90.89;100429.78;6309325;22;20043;-91
2022/11/16 04:47:26;;;;;;;135.05;40.13;;;;;;;3.39;90.71;100397.66;6310608;22;20116;-89
2022/11/16 04:49:53;;;;;;;135.55;39.83;;;;;;;3.54;90.41;100427.50;6266364;22;20011;-89
2022/11/16 04:52:19;;;;;;;127.85;37.85;;;;;;;3.13;90.27;100363.34;6307834;22;20113;-90
2022/11/16 04:54:47;;;;;;;124.47;37.03;;;;;;;3.67;89.78;100440.66;6306481;22;20144;-89
2022/11/16 04:57:13;;;;;;;122.30;35.65;;;;;;;3.34;89.66;100386.56;6334567;22;20261;-88
2022/11/16 04:59:40;;;;;;;108.63;32.13;;;;;;;3.49;88.95;100398.63;6308656;22;20007;-88
2022/11/16 05:02:09;;;;;;;92.50;32.20;;;;;;;3.31;88.42;100389.47;6312425;22;20002;-88
2022/11/16 05:05:04;;;;;;;86.45;30.67;;;;;;;3.44;88.40;100406.13;6269739;22;20053;-91
2022/11/16 05:07:31;;;;;;;82.72;28.33;;;;;;;3.36;87.88;100400.56;6333171;22;20014;-90
2022/11/16 05:09:56;;;;;;;113.72;26.08;;;;;;;3.59;87.48;100420.84;6283026;22;20474;-91
2022/11/16 05:12:25;;;;;;;85.20;24.13;;;;;;;3.34;87.36;100403.34;6282440;22;20090;-92
2022/11/16 05:14:54;;;;;;;86.32;22.40;;;;;;;3.27;87.26;100409.25;6308349;22;20477;-92
2022/11/16 05:17:23;;;;;;;147.85;20.30;;;;;;;3.25;88.28;100427.97;6336678;22;20336;-92
2022/11/16 05:22:34;;;;;;;145.20;20.83;;;;;;;3.04;88.69;100397.75;6316468;22;20300;-92
2022/11/16 05:25:02;;;;;;;;;;;;;;;3.22;88.88;100422.91;6309373;22;20030;-91
2022/11/16 05:27:29;;;;;;;83.13;17.50;;;;;;;2.83;89.21;100371.88;6336022;22;19910;-91
2022/11/16 05:30:19;;;;;;;84.40;20.10;;;;;;;2.60;90.19;100357.75;6286687;22;20015;-91
2022/11/16 05:32:48;;;;;;;81.63;20.30;;;;;;;3.03;90.47;100396.91;6307969;22;20003;-91
2022/11/16 05:35:14;;;;;;;205.48;20.67;;;;;;;2.83;91.15;100400.25;6324815;22;19998;-91
2022/11/16 05:37:39;;;;;;;195.77;21.08;;;;;;;2.76;91.42;100383.94;6352610;22;20462;-90
2022/11/16 05:40:06;;;;;;;114.93;20.67;;;;;;;3.10;91.37;100422.03;6288247;22;20011;-91
2022/11/16 05:42:31;;;;;;;92.88;18.98;;;;;;;3.02;91.13;100378.44;6337325;22;20079;-90
2022/11/16 05:44:58;;;;;;;89.20;20.80;;;;;;;3.21;90.38;100388.47;6283095;22;20002;-90
2022/11/16 05:47:25;;;;;;;148.57;20.08;;;;;;;3.28;90.72;100416.28;6316236;22;20007;-90
2022/11/16 05:49:52;;;;;;;91.80;21.15;;;;;;;3.11;90.12;100375.06;6287133;22;20034;-89
2022/11/16 05:52:18;;;;;;;102.72;22.85;;;;;;;3.04;90.92;100389.78;6285734;22;20007;-88
2022/11/16 05:54:49;;;;;;;88.47;21.60;;;;;;;3.22;90.76;100388.38;6282870;22;20007;-90
2022/11/16 05:57:18;;;;;;;91.90;23.25;;;;;;;3.23;91.16;100390.06;6286147;22;20018;-90
2022/11/16 05:59:47;;;;;;;75.55;24.10;;;;;;;3.15;90.88;100358.78;6337016;22;20002;-91
2022/11/16 06:02:14;;;;;;;73.55;23.42;;;;;;;3.68;90.13;100407.81;6304655;22;20015;-89
2022/11/16 06:04:41;;;;;;;75.60;22.48;;;;;;;3.70;89.36;100390.75;6309403;22;20423;-89
2022/11/16 06:07:07;;;;;;;71.93;21.95;;;;;;;3.48;88.77;100342.94;6313009;22;20082;-89
2022/11/16 06:09:33;;;;;;;71.88;23.05;;;;;;;3.79;88.98;100395.34;6313502;22;20470;-88
2022/11/16 06:12:08;;;;;;;74.38;24.88;;;;;;;3.90;88.68;100399.78;6295839;22;20098;-89
2022/11/16 06:14:37;;;;;;;;;;;;;;;4.15;87.76;100393.31;6316123;22;20084;-89
2022/11/16 06:17:03;;;;;;;65.78;21.20;;;;;;;4.10;87.69;100384.88;6345739;22;19916;-91
2022/11/16 06:19:29;;;;;;;66.57;21.58;;;;;;;3.84;87.06;100328.47;6289574;22;20006;-89
2022/11/16 06:21:56;;;;;;;67.38;21.83;;;;;;;4.05;87.16;100356.94;6286036;22;20034;-89
2022/11/16 06:24:22;;;;;;;65.65;21.63;;;;;;;4.12;86.86;100347.47;6337152;22;20015;-89
2022/11/16 06:26:51;;;;;;;71.95;23.17;;;;;;;4.26;87.24;100381.78;6316181;22;20331;-89
2022/11/16 06:29:18;;;;;;;56.50;22.05;;;;;;;4.39;87.29;100363.81;6289367;22;20003;-89
2022/11/16 06:31:44;;;;;;;64.32;22.25;;;;;;;4.85;86.00;100359.09;6286374;22;20129;-90
2022/11/16 06:34:10;;;;;;;56.03;20.80;;;;;;;5.16;84.25;100365.25;6287097;22;20014;-91
2022/11/16 06:36:37;;;;;;;53.60;20.90;;;;;;;5.21;83.23;100331.06;6261799;22;20011;-88
2022/11/16 06:39:03;;;;;;;59.58;21.05;;;;;;;5.32;82.48;100321.28;6315151;22;20007;-90
2022/11/16 06:41:28;;;;;;;57.13;21.90;;;;;;;5.47;82.27;100349.25;6309483;22;20007;-91
2022/11/16 06:43:56;;;;;;;;;;;;;;;5.53;82.35;100351.38;6283946;22;20046;-89
2022/11/16 06:46:23;;;;;;;50.88;20.60;;;;;;;5.50;82.18;100338.28;6339221;22;19986;-89
2022/11/16 06:48:49;;;;;;;63.13;22.73;;;;;;;5.03;83.21;100316.66;6336994;22;20032;-91
2022/11/16 06:51:14;;;;;;;61.42;26.25;;;;;;;5.26;82.88;100330.66;6336654;22;20033;-90
2022/11/16 06:53:42;;;;;;;54.30;21.50;;;;;;;5.44;82.94;100331.69;6284238;22;20041;-92
2022/11/16 06:56:10;;;;;;;54.72;22.08;;;;;;;6.43;79.89;100309.47;6308506;22;20018;-91
2022/11/16 06:58:37;;;;;;;48.97;20.52;;;;;;;7.54;75.06;100283.75;6282747;22;20002;-92
2022/11/16 07:01:07;;;;;;;46.10;19.58;;;;;;;8.12;71.98;100323.44;6309858;22;20117;-91
2022/11/16 07:03:33;;;;;;;46.05;19.70;;;;;;;7.86;71.67;100317.19;6312896;22;20007;-90
2022/11/16 07:06:08;;;;;;;40.47;18.27;;;;;;;7.74;71.39;100305.84;6322497;22;19999;-90
2022/11/16 07:08:39;;;;;;;40.35;19.13;;;;;;;8.94;67.46;100283.06;6280569;22;20005;-89
2022/11/16 07:11:05;;;;;;;38.88;18.95;;;;;;;10.63;61.66;100281.91;6297925;22;20022;-90
2022/11/16 07:13:32;;;;;;;40.03;18.75;;;;;;;12.19;57.68;100287.41;6309569;22;20026;-87
2022/11/16 07:16:05;;;;;;;33.85;17.88;;;;;;;13.79;52.45;100299.69;6283935;22;20055;-91
2022/11/16 07:18:39;;;;;;;31.67;17.13;;;;;;;14.07;50.28;100302.47;6284648;22;20006;-90
2022/11/16 07:21:13;;;;;;;35.30;17.35;;;;;;;15.89;47.12;100288.91;6284884;22;20010;-90
2022/11/16 07:23:39;;;;;;;32.05;17.63;;;;;;;17.06;43.25;100273.91;6282938;22;20081;-90
2022/11/16 07:26:08;;;;;;;36.25;19.83;;;;;;;17.56;42.06;100265.19;6281793;22;20007;-91
2022/11/16 07:28:35;;;;;;;37.70;18.70;;;;;;;18.87;39.93;100282.69;6282130;22;20006;-89
2022/11/16 07:31:02;;;;;;;36.35;20.25;;;;;;;18.48;39.51;100256.63;6334906;22;20431;-92
2022/11/16 07:33:28;;;;;;;38.25;21.88;;;;;;;18.29;39.90;100286.50;6310470;22;20089;-92
2022/11/16 07:36:03;;;;;;;46.13;25.38;;;;;;;18.14;39.87;100291.41;6340750;22;20009;-90
2022/11/16 07:38:30;;;;;;;57.38;32.13;;;;;;;17.61;41.09;100272.69;6309542;22;20368;-89
2022/11/16 07:41:00;;;;;;;48.75;29.42;;;;;;;17.99;40.19;100280.84;6313530;22;20003;-89
2022/11/16 07:43:30;;;;;;;44.97;26.92;;;;;;;18.64;38.88;100271.59;6316277;22;20025;-90
2022/11/16 07:46:03;;;;;;;48.47;27.95;;;;;;;18.35;38.76;100269.31;6295337;22;20010;-89
2022/11/16 07:48:32;;;;;;;54.63;31.08;;;;;;;17.52;40.62;100281.06;6331310;22;19991;-90
2022/11/16 07:51:03;;;;;;;55.53;31.25;;;;;;;17.45;41.23;100253.09;6318612;22;20010;-89
2022/11/16 07:53:31;;;;;;;49.85;29.60;;;;;;;18.61;39.42;100272.84;6309773;22;20068;-92
2022/11/16 07:56:00;;;;;;;46.47;27.70;;;;;;;17.87;40.21;100266.28;6287583;22;20010;-93
2022/11/16 07:58:32;;;;;;;39.20;22.63;;;;;;;17.53;40.69;100262.88;6284003;22;20007;-92
2022/11/16 08:01:15;;;;;;;38.03;21.20;;;;;;;17.77;40.49;100277.63;6286102;22;20033;-95
2022/11/16 08:03:44;;;;;;;35.17;20.17;;;;;;;17.78;40.22;100235.78;6341450;22;20010;-90
2022/11/16 08:06:16;;;;;;;30.80;19.67;;;;;;;17.67;39.96;100231.84;6320044;22;19999;-92
2022/11/16 08:08:46;;;;;;;31.42;19.05;;;;;;;17.25;41.48;100263.19;6297316;22;20014;-91
2022/11/16 08:11:12;;;;;;;31.17;18.85;;;;;;;16.60;42.18;100227.81;6323251;22;20025;-89
2022/11/16 08:13:38;;;;;;;;;;;;;;;15.91;44.56;100261.59;6303049;22;20002;-91
2022/11/16 08:16:24;;;;;;;27.60;17.00;;;;;;;15.52;45.01;100241.44;6310923;22;19928;-92
2022/11/16 08:18:54;;;;;;;29.50;16.85;;;;;;;14.81;46.67;100230.94;6333832;22;20019;-92
2022/11/16 08:21:25;;;;;;;36.00;18.02;;;;;;;14.30;48.75;100264.44;6387459;22;20053;-91
2022/11/16 08:23:57;;;;;;;33.30;17.67;;;;;;;14.25;49.32;100250.66;6360606;22;20006;-92
2022/11/16 08:26:26;;;;;;;37.00;18.42;;;;;;;13.92;49.68;100262.84;6380379;22;20046;-96
2022/11/16 08:29:16;;;;;;;33.75;17.70;;;;;;;14.80;48.30;100256.31;6301210;22;20011;-96
2022/11/16 08:35:21;;;;;;;33.33;17.52;;;;;;;16.59;44.50;100245.97;6344247;22;20041;-95
2022/11/16 08:38:56;;;;;;;35.08;17.90;;;;;;;17.45;41.95;100238.69;6341892;22;20047;-96
2022/11/16 08:41:23;;;;;;;31.52;18.70;;;;;;;18.82;38.93;100202.72;6348175;22;20427;-95
2022/11/16 08:43:52;;;;;;;34.20;19.42;;;;;;;19.13;38.36;100202.56;6340559;22;20049;-93
2022/11/16 08:46:20;;;;;;;29.20;18.38;;;;;;;19.69;36.55;100206.06;6344515;22;20007;-93
2022/11/16 08:48:51;;;;;;;29.27;17.05;;;;;;;20.02;35.67;100210.19;6297705;22;20108;-96
2022/11/16 08:51:19;;;;;;;31.50;17.95;;;;;;;20.64;34.31;100201.56;6324351;22;20048;-94
2022/11/16 08:53:50;;;;;;;32.10;18.15;;;;;;;21.57;33.17;100207.09;6341103;22;20018;-94
2022/11/16 08:56:21;;;;;;;29.95;18.02;;;;;;;22.09;32.31;100206.91;6297265;22;20438;-95
2022/11/16 08:58:55;;;;;;;30.17;18.45;;;;;;;23.74;30.04;100214.44;6347103;22;20006;-93
2022/11/16 09:01:27;;;;;;;31.90;18.73;;;;;;;23.62;29.59;100215.63;6373980;22;20062;-93
2022/11/16 09:03:53;;;;;;;30.05;18.67;;;;;;;22.30;31.15;100189.78;6337945;22;20104;-93
2022/11/16 09:06:39;;;;;;;29.83;18.38;;;;;;;22.17;31.58;100198.28;6339688;22;20446;-96
2022/11/16 09:09:04;;;;;;;;;;;;;;;22.46;30.89;100217.41;6318871;22;20396;-87
2022/11/16 09:11:37;;;;;;;25.90;16.55;;;;;;;22.26;30.45;100183.13;6342368;22;19910;-93
2022/11/16 09:14:30;;;;;;;27.50;16.45;;;;;;;23.07;29.46;100181.84;6352755;22;20165;-96
2022/11/16 09:16:56;;;;;;;25.30;16.77;;;;;;;24.14;28.01;100204.94;6327899;22;20018;-91
2022/11/16 09:19:23;;;;;;;24.63;17.08;;;;;;;24.91;27.11;100180.72;6348571;22;20003;-92
2022/11/16 09:21:49;;;;;;;23.33;16.58;;;;;;;25.53;26.09;100183.72;6313377;22;20493;-91
2022/11/16 09:24:15;;;;;;;28.33;17.27;;;;;;;24.68;27.69;100171.00;6319011;22;20010;-92
2022/11/16 09:26:42;;;;;;;29.67;17.75;;;;;;;25.29;27.32;100197.97;6322509;22;20457;-93
2022/11/16 09:29:14;;;;;;;25.73;17.95;;;;;;;26.38;25.55;100161.19;6317051;22;20014;-91
2022/11/16 09:31:41;;;;;;;26.00;17.35;;;;;;;27.65;23.88;100150.75;6369002;22;20614;-92
2022/11/16 09:34:07;;;;;;;26.30;18.13;;;;;;;28.24;22.83;100158.03;6352090;22;20017;-93
2022/11/16 09:36:32;;;;;;;25.17;16.55;;;;;;;29.31;21.54;100153.22;6324592;22;20006;-91
2022/11/16 09:39:02;;;;;;;23.67;16.90;;;;;;;29.37;21.81;100162.31;6319556;22;20046;-93
2022/11/16 09:41:56;;;;;;;28.00;16.65;;;;;;;30.72;20.84;100152.31;6341060;22;20037;-94
2022/11/16 09:44:23;;;;;;;22.58;16.05;;;;;;;31.03;20.20;100146.16;6371566;22;20030;-94
2022/11/16 09:46:53;;;;;;;21.65;15.77;;;;;;;31.59;19.52;100142.13;6343562;22;20029;-92
2022/11/16 09:49:29;;;;;;;24.88;16.20;;;;;;;31.86;18.66;100120.91;6318609;22;20007;-92
2022/11/16 09:52:18;;;;;;;24.08;16.60;;;;;;;32.23;18.74;100116.91;6344045;22;20303;-93
2022/11/16 09:54:51;;;;;;;33.67;22.00;;;;;;;32.20;18.95;100112.00;6323507;22;20013;-93
2022/11/16 09:57:20;;;;;;;34.65;23.63;;;;;;;32.72;18.62;100137.25;6332397;22;20014;-93
2022/11/16 09:59:52;;;;;;;38.65;23.17;;;;;;;33.20;18.34;100111.38;6343185;22;20074;-92
2022/11/16 10:02:23;;;;;;;36.28;22.33;;;;;;;33.83;17.22;100111.88;6338310;22;20010;-94
2022/11/16 10:05:26;;;;;;;33.08;20.30;;;;;;;33.62;17.30;100111.72;6372821;22;20020;-94
2022/11/16 10:08:19;;;;;;;23.13;17.17;;;;;;;33.04;17.21;100100.97;6371324;22;20425;-94
2022/11/16 10:10:58;;;;;;;25.75;17.25;;;;;;;30.95;19.64;100100.50;6320781;22;20014;-92
2022/11/16 10:13:54;;;;;;;21.67;17.38;;;;;;;30.53;19.74;100098.84;6370606;22;20089;-93
2022/11/16 10:16:43;;;;;;;28.55;18.95;;;;;;;31.30;19.38;100090.56;6345998;22;20180;-93
2022/11/16 10:20:00;;;;;;;27.95;17.90;;;;;;;31.20;18.95;100082.44;6344687;22;20449;-93
2022/11/16 10:23:18;;;;;;;37.08;19.85;;;;;;;31.41;19.47;100084.78;6307814;22;20014;-93
2022/11/16 10:26:17;;;;;;;26.90;18.45;;;;;;;31.89;19.45;100078.56;6298765;22;20074;-95
2022/11/16 10:28:58;;;;;;;27.63;19.42;;;;;;;32.18;19.05;100059.47;6343274;22;20487;-92
2022/11/16 10:32:05;;;;;;;27.42;19.05;;;;;;;32.71;18.45;100076.34;6317531;22;20063;-94
2022/11/16 10:34:48;;;;;;;24.33;18.27;;;;;;;33.01;17.77;100069.88;6351643;22;20076;-94
2022/11/16 10:37:43;;;;;;;26.35;18.48;;;;;;;32.32;18.17;100050.19;6314378;22;20067;-91
2022/11/16 10:40:40;;;;;;;24.25;17.23;;;;;;;31.90;18.49;100038.53;6259213;22;20061;-94
2022/11/16 10:43:23;;;;;;;23.65;17.58;;;;;;;33.00;17.78;100059.88;6361533;22;20002;-90
2022/11/16 10:46:16;;;;;;;21.88;16.85;;;;;;;33.25;17.88;100056.63;6339414;22;20629;-93
2022/11/16 10:48:53;;;;;;;22.15;16.63;;;;;;;33.53;17.29;100057.94;6361320;22;20033;-95
2022/11/16 10:51:24;;;;;;;21.80;17.00;;;;;;;33.04;17.85;100045.28;6361524;22;19999;-94
2022/11/16 10:53:52;;;;;;;19.67;15.50;;;;;;;33.37;17.29;100021.41;6310851;22;20062;-92
2022/11/16 10:56:38;;;;;;;25.25;16.27;;;;;;;33.01;18.18;99997.50;6311221;22;20010;-93
2022/11/16 10:59:14;;;;;;;20.25;14.40;;;;;;;32.92;18.13;100013.38;6322856;22;20070;-94
2022/11/16 11:02:16;;;;;;;21.20;14.02;;;;;;;32.18;18.24;100014.97;6329233;22;20105;-92
2022/11/16 11:04:43;;;;;;;19.65;13.45;;;;;;;33.13;18.07;100004.38;6336873;22;19994;-94
2022/11/16 11:07:33;;;;;;;23.88;14.95;;;;;;;33.47;17.45;100008.28;6305299;22;20029;-90
2022/11/16 11:10:05;;;;;;;20.58;14.27;;;;;;;34.07;17.02;99979.44;6294524;22;20462;-94
2022/11/16 11:12:39;;;;;;;19.35;16.05;;;;;;;33.85;16.98;99986.88;6329052;22;20022;-94
2022/11/16 11:15:26;;;;;;;22.52;15.93;;;;;;;34.04;16.64;100007.97;6298888;22;20083;-94
2022/11/16 11:18:28;;;;;;;17.10;13.43;;;;;;;33.69;16.76;99999.72;6348178;22;20070;-95
2022/11/16 11:21:18;;;;;;;21.70;13.48;;;;;;;33.87;16.85;99983.78;6357624;22;20030;-90
2022/11/16 11:24:16;;;;;;;16.42;13.70;;;;;;;33.82;17.04;100007.06;6276962;22;20017;-94
2022/11/16 11:26:48;;;;;;;24.25;13.50;;;;;;;34.12;16.92;100001.59;6352477;22;20058;-90
2022/11/16 11:29:46;;;;;;;20.48;13.00;;;;;;;33.61;16.68;99969.94;6328562;22;20013;-94
2022/11/16 11:33:03;;;;;;;21.67;13.45;;;;;;;33.43;16.83;99960.75;6299597;22;20031;-94
2022/11/16 11:36:06;;;;;;;19.15;12.23;;;;;;;32.95;17.92;99996.00;6353218;22;20010;-93
2022/11/16 11:38:58;;;;;;;27.00;14.90;;;;;;;33.01;18.47;99986.34;6356813;22;20454;-94
2022/11/16 11:42:03;;;;;;;17.08;13.38;;;;;;;32.56;18.87;99981.06;6371020;22;20089;-93
2022/11/16 11:45:05;;;;;;;19.15;12.38;;;;;;;31.38;19.95;99977.09;6369976;22;20013;-93
2022/11/16 11:50:24;;;;;;;20.08;14.98;;;;;;;29.43;21.75;99934.91;6384156;22;20078;-91
2022/11/16 11:53:17;;;;;;;21.27;13.35;;;;;;;29.14;22.47;99960.00;6339447;22;20034;-90
2022/11/16 11:55:44;;;;;;;17.45;12.50;;;;;;;28.46;23.35;99963.19;6379623;22;20017;-91
2022/11/16 11:58:36;;;;;;;18.38;11.48;;;;;;;27.43;24.84;99956.03;6304332;22;20022;-93
2022/11/16 12:21:02;;;;;;;16.83;10.98;;;;;;;22.53;33.10;99944.97;6391534;22;20089;-95
2022/11/16 12:24:15;;;;;;;17.30;11.98;;;;;;;21.93;34.30;99954.06;6381547;22;20021;-95
2022/11/16 12:27:41;;;;;;;19.42;11.90;;;;;;;21.78;34.88;99941.00;6369934;22;20010;-95
2022/11/16 12:33:46;;;;;;;21.17;14.48;;;;;;;22.07;34.76;99935.34;6337353;22;20141;-94
2022/11/16 12:36:27;;;;;;;26.23;15.65;;;;;;;21.85;35.13;99910.72;6283186;22;20078;-94
2022/11/16 12:39:14;;;;;;;21.17;13.57;;;;;;;22.06;35.17;99929.06;6309289;22;20007;-91
2022/11/16 12:42:01;;;;;;;20.90;13.23;;;;;;;21.47;35.97;99917.88;6312118;22;20003;-90
2022/11/16 12:44:57;;;;;;;18.95;12.15;;;;;;;21.46;36.16;99921.66;6282261;22;20080;-89
2022/11/16 12:47:34;;;;;;;18.55;12.25;;;;;;;21.24;36.84;99935.25;6305481;22;20163;-90
2022/11/16 12:50:22;;;;;;;20.05;12.95;;;;;;;21.12;37.08;99916.19;6306559;22;20015;-90
2022/11/16 12:53:17;;;;;;;21.88;13.05;;;;;;;20.96;37.43;99897.91;6301536;22;20030;-90
2022/11/16 12:56:08;;;;;;;23.05;12.10;;;;;;;20.89;37.61;99914.44;6303492;22;20011;-91
2022/11/16 12:59:06;;;;;;;20.80;11.73;;;;;;;20.64;38.07;99923.00;6304273;22;20015;-90
2022/11/16 13:02:13;;;;;;;26.88;12.48;;;;;;;20.49;38.49;99900.88;6310499;22;20035;-92
2022/11/16 13:05:02;;;;;;;19.48;10.88;;;;;;;20.35;38.68;99925.72;6318735;22;19999;-91